Time;durP1;ratioP1;P1;durP2;ratioP2;P2;SDS_P1;SDS_P2;PMS_P1;PMS_P2;Temp;Humidity;BMP_temperature;BMP_pressure;BME280_temperature;BME280_humidity;BME280_pressure;Samples;Min_cycle;Max_cycle;Signal;HPM_P1;HPM_P2
2023/05/29 00:01:18;;;;;;;143.90;136.87;;;;;;;;;;5006707;28;20458;-84
2023/05/29 00:03:44;;;;;;;437.10;409.50;;;;;;;;;;5025386;28;20455;-85
2023/05/29 00:06:10;;;;;;;283.67;268.57;;;;;;;;;;5025274;28;20843;-85
2023/05/29 00:08:36;;;;;;;274.40;258.87;;;;;;;;;;5021704;28;20435;-84
2023/05/29 00:11:02;;;;;;;175.73;166.77;;;;;;;;;;5024314;28;20484;-85
2023/05/29 00:13:28;;;;;;;281.10;265.80;;;;;;;;;;5022663;28;20896;-85
2023/05/29 00:15:55;;;;;;;242.87;230.17;;;;;;;;;;5023482;28;20493;-85
2023/05/29 00:18:21;;;;;;;216.73;205.17;;;;;;;;;;5024608;28;20479;-85
2023/05/29 00:20:47;;;;;;;166.73;158.60;;;;;;;;;;5024571;28;20486;-85
2023/05/29 00:23:13;;;;;;;212.73;201.30;;;;;;;;;;5015972;28;20945;-85
2023/05/29 00:25:42;;;;;;;217.27;205.17;;;;;;;;;;5021537;28;20433;-85
2023/05/29 00:28:09;;;;;;;253.27;239.67;;;;;;;;;;5009669;28;20458;-86
2023/05/29 00:30:35;;;;;;;310.53;292.53;;;;;;;;;;5013603;28;20556;-87
2023/05/29 00:33:01;;;;;;;374.67;352.57;;;;;;;;;;5025265;28;20485;-85
2023/05/29 00:35:27;;;;;;;346.10;325.20;;;;;;;;;;5023956;28;20434;-85
2023/05/29 00:37:53;;;;;;;362.60;340.27;;;;;;;;;;5020773;28;20461;-86
2023/05/29 00:40:19;;;;;;;443.13;412.47;;;;;;;;;;5014857;28;20485;-85
2023/05/29 00:42:45;;;;;;;441.33;411.67;;;;;;;;;;5024366;28;20435;-85
2023/05/29 00:45:13;;;;;;;499.07;460.70;;;;;;;;;;5024133;28;20908;-84
2023/05/29 00:47:39;;;;;;;441.17;410.27;;;;;;;;;;5023542;28;20474;-85
2023/05/29 00:50:05;;;;;;;438.97;403.57;;;;;;;;;;5026268;28;20910;-85
2023/05/29 00:52:31;;;;;;;494.37;448.73;;;;;;;;;;5020233;28;20438;-84
2023/05/29 00:54:57;;;;;;;432.50;395.67;;;;;;;;;;5026726;28;21048;-84
2023/05/29 00:57:23;;;;;;;468.63;430.47;;;;;;;;;;5022024;28;20537;-85
2023/05/29 00:59:51;;;;;;;460.43;420.37;;;;;;;;;;5040877;28;20398;-83
2023/05/29 01:02:18;;;;;;;442.03;401.33;;;;;;;;;;5041990;28;20434;-82
2023/05/29 01:04:45;;;;;;;451.90;413.00;;;;;;;;;;5049810;28;20419;-85
2023/05/29 01:07:12;;;;;;;453.23;420.07;;;;;;;;;;5031868;28;20439;-84
2023/05/29 01:09:38;;;;;;;422.60;384.93;;;;;;;;;;5029201;28;20435;-84
2023/05/29 01:12:20;;;;;;;465.47;430.47;;;;;;;;;;5011793;28;20463;-85
2023/05/29 01:14:57;;;;;;;405.67;370.83;;;;;;;;;;5027855;28;20549;-86
2023/05/29 01:17:40;;;;;;;432.20;399.37;;;;;;;;;;5022033;28;20449;-85
2023/05/29 01:20:13;;;;;;;423.43;382.27;;;;;;;;;;5014270;28;20414;-86
2023/05/29 01:22:54;;;;;;;445.47;406.37;;;;;;;;;;5005321;28;20461;-84
2023/05/29 01:25:39;;;;;;;470.27;420.07;;;;;;;;;;5023852;28;20430;-86
2023/05/29 01:28:07;;;;;;;364.17;338.73;;;;;;;;;;5021508;28;20476;-85
2023/05/29 01:30:33;;;;;;;376.87;350.70;;;;;;;;;;5011297;28;20816;-85
2023/05/29 01:33:00;;;;;;;383.63;355.40;;;;;;;;;;5013380;28;20469;-85
2023/05/29 01:35:26;;;;;;;412.70;380.47;;;;;;;;;;5020907;28;20534;-85
2023/05/29 01:37:52;;;;;;;377.33;349.23;;;;;;;;;;5023224;28;20441;-85
2023/05/29 01:40:18;;;;;;;278.17;259.17;;;;;;;;;;5022728;28;20495;-84
2023/05/29 01:42:44;;;;;;;232.30;217.40;;;;;;;;;;5023467;28;20542;-85
2023/05/29 01:45:11;;;;;;;405.07;366.87;;;;;;;;;;5023632;28;20422;-84
2023/05/29 01:47:38;;;;;;;411.10;369.60;;;;;;;;;;5022866;28;20445;-84
2023/05/29 01:50:04;;;;;;;409.90;365.10;;;;;;;;;;5015502;28;20503;-85
2023/05/29 01:52:30;;;;;;;405.73;366.73;;;;;;;;;;5020709;28;20426;-85
2023/05/29 01:54:56;;;;;;;404.23;368.27;;;;;;;;;;5021763;28;20473;-83
2023/05/29 01:57:23;;;;;;;367.03;336.30;;;;;;;;;;5020290;28;20509;-84
2023/05/29 01:59:49;;;;;;;221.73;207.63;;;;;;;;;;5024406;28;20415;-85
2023/05/29 02:02:15;;;;;;;299.47;280.40;;;;;;;;;;5020337;28;20473;-86
2023/05/29 02:04:41;;;;;;;386.07;350.60;;;;;;;;;;5024419;28;20480;-85
2023/05/29 02:07:07;;;;;;;444.70;410.87;;;;;;;;;;5019296;28;20453;-86
2023/05/29 02:09:34;;;;;;;375.93;345.23;;;;;;;;;;5016027;28;20843;-85
2023/05/29 02:12:01;;;;;;;417.33;382.40;;;;;;;;;;5020562;28;20512;-85
2023/05/29 02:14:27;;;;;;;381.33;342.03;;;;;;;;;;5024421;28;21064;-85
2023/05/29 02:16:53;;;;;;;149.70;141.07;;;;;;;;;;5016538;28;20458;-83
2023/05/29 02:19:20;;;;;;;148.87;139.60;;;;;;;;;;5022356;28;20443;-84
2023/05/29 02:21:48;;;;;;;301.93;282.13;;;;;;;;;;5021967;28;20462;-85
2023/05/29 02:24:14;;;;;;;338.57;314.50;;;;;;;;;;5017683;28;20479;-85
2023/05/29 02:26:40;;;;;;;411.77;374.00;;;;;;;;;;5014418;28;20493;-85
2023/05/29 02:29:06;;;;;;;364.73;334.90;;;;;;;;;;5035751;28;21224;-84
2023/05/29 02:31:32;;;;;;;399.73;357.73;;;;;;;;;;5021646;28;21286;-85
2023/05/29 02:33:59;;;;;;;100.30;94.47;;;;;;;;;;5023066;28;20465;-85
2023/05/29 02:36:25;;;;;;;374.50;335.37;;;;;;;;;;5021201;28;20462;-85
2023/05/29 02:38:51;;;;;;;376.07;337.90;;;;;;;;;;5023795;28;20940;-84
2023/05/29 02:41:17;;;;;;;420.70;358.00;;;;;;;;;;5026034;28;20480;-82
2023/05/29 02:43:43;;;;;;;387.27;346.37;;;;;;;;;;5022423;28;20549;-84
2023/05/29 02:46:09;;;;;;;103.47;97.63;;;;;;;;;;5012290;28;20629;-84
2023/05/29 02:48:35;;;;;;;133.10;124.53;;;;;;;;;;5033498;28;20480;-83
2023/05/29 02:51:01;;;;;;;150.63;141.13;;;;;;;;;;5020663;28;20438;-84
2023/05/29 02:53:27;;;;;;;158.73;149.17;;;;;;;;;;5010719;28;20533;-84
2023/05/29 02:55:54;;;;;;;92.77;87.43;;;;;;;;;;5046633;28;20458;-84
2023/05/29 02:58:20;;;;;;;122.57;115.70;;;;;;;;;;5068922;28;20449;-84
2023/05/29 03:00:47;;;;;;;111.67;104.47;;;;;;;;;;5034313;28;20457;-85
2023/05/29 03:03:13;;;;;;;168.23;157.57;;;;;;;;;;5025076;28;20951;-84
2023/05/29 03:05:39;;;;;;;153.90;144.23;;;;;;;;;;5027088;28;20445;-84
2023/05/29 03:08:05;;;;;;;83.77;78.60;;;;;;;;;;5026786;28;20488;-84
2023/05/29 03:10:31;;;;;;;146.23;137.07;;;;;;;;;;5009559;28;20500;-84
2023/05/29 03:12:57;;;;;;;141.20;132.17;;;;;;;;;;5025928;28;20474;-84
2023/05/29 03:15:23;;;;;;;172.50;161.37;;;;;;;;;;5025298;28;20541;-85
2023/05/29 03:17:49;;;;;;;163.53;152.97;;;;;;;;;;5025264;28;20450;-85
2023/05/29 03:20:15;;;;;;;208.40;194.67;;;;;;;;;;5025391;28;20415;-85
2023/05/29 03:22:41;;;;;;;205.73;191.03;;;;;;;;;;5007070;28;20549;-85
2023/05/29 03:25:11;;;;;;;211.30;196.63;;;;;;;;;;5027241;28;20952;-85
2023/05/29 03:27:38;;;;;;;224.63;208.73;;;;;;;;;;5024779;28;20553;-83
2023/05/29 03:30:04;;;;;;;146.57;136.30;;;;;;;;;;5027317;28;20415;-84
2023/05/29 03:32:30;;;;;;;180.37;167.27;;;;;;;;;;5023178;28;20476;-83
2023/05/29 03:34:57;;;;;;;178.43;165.67;;;;;;;;;;5016651;28;20567;-83
2023/05/29 03:37:23;;;;;;;131.67;123.43;;;;;;;;;;5022086;28;20755;-84
2023/05/29 03:39:49;;;;;;;148.53;139.03;;;;;;;;;;5026965;28;20406;-84
2023/05/29 03:42:15;;;;;;;237.53;221.63;;;;;;;;;;5023241;28;21216;-84
2023/05/29 03:44:42;;;;;;;186.67;173.77;;;;;;;;;;5027264;28;20418;-84
2023/05/29 03:47:08;;;;;;;143.90;133.97;;;;;;;;;;5023102;28;20747;-84
2023/05/29 03:49:34;;;;;;;130.43;122.00;;;;;;;;;;5025779;28;20427;-84
2023/05/29 03:52:00;;;;;;;141.37;131.30;;;;;;;;;;5025420;28;20538;-83
2023/05/29 03:54:26;;;;;;;93.40;86.73;;;;;;;;;;5019310;28;20561;-83
2023/05/29 03:56:52;;;;;;;37.13;34.30;;;;;;;;;;5021389;28;20530;-84
2023/05/29 03:59:18;;;;;;;135.13;125.87;;;;;;;;;;5024020;28;20964;-83
2023/05/29 04:01:44;;;;;;;103.27;96.97;;;;;;;;;;5014531;28;20431;-83
2023/05/29 04:04:10;;;;;;;129.20;120.87;;;;;;;;;;5013585;28;20492;-83
2023/05/29 04:06:38;;;;;;;177.20;165.30;;;;;;;;;;5001435;28;20891;-84
2023/05/29 04:09:06;;;;;;;167.87;156.23;;;;;;;;;;5025987;28;20422;-84
2023/05/29 04:11:34;;;;;;;137.90;128.53;;;;;;;;;;5022410;28;20463;-84
2023/05/29 04:14:00;;;;;;;145.23;135.33;;;;;;;;;;5025858;28;20560;-84
2023/05/29 04:16:26;;;;;;;156.90;146.33;;;;;;;;;;5022388;28;20885;-84
2023/05/29 04:18:52;;;;;;;158.00;147.10;;;;;;;;;;5025834;28;20517;-84
2023/05/29 04:21:18;;;;;;;101.87;95.17;;;;;;;;;;5011573;28;20439;-83
2023/05/29 04:23:44;;;;;;;39.10;36.07;;;;;;;;;;5025273;28;20932;-83
2023/05/29 04:26:10;;;;;;;51.70;47.60;;;;;;;;;;5015307;28;20449;-83
2023/05/29 04:28:37;;;;;;;54.33;50.53;;;;;;;;;;5027382;28;20430;-84
2023/05/29 04:31:03;;;;;;;20.83;15.53;;;;;;;;;;5023022;28;20449;-84
2023/05/29 04:33:29;;;;;;;20.77;17.03;;;;;;;;;;5025325;28;20458;-84
2023/05/29 04:35:55;;;;;;;14.40;12.50;;;;;;;;;;5021340;28;20497;-84
2023/05/29 04:38:24;;;;;;;13.23;10.17;;;;;;;;;;5016675;28;20422;-84
2023/05/29 04:40:51;;;;;;;77.77;72.97;;;;;;;;;;5006752;28;20423;-85
2023/05/29 04:43:17;;;;;;;135.10;126.83;;;;;;;;;;5026026;28;20439;-84
2023/05/29 04:45:43;;;;;;;176.60;164.33;;;;;;;;;;5024191;28;20747;-84
2023/05/29 04:48:09;;;;;;;66.17;61.70;;;;;;;;;;5050981;28;20471;-85
2023/05/29 04:50:36;;;;;;;111.40;104.80;;;;;;;;;;5039009;28;20438;-84
2023/05/29 04:53:02;;;;;;;178.80;167.37;;;;;;;;;;5019467;28;20517;-84
2023/05/29 04:55:28;;;;;;;75.30;69.97;;;;;;;;;;5022383;28;20434;-84
2023/05/29 04:57:54;;;;;;;76.40;71.60;;;;;;;;;;5026639;28;20445;-84
2023/05/29 05:00:20;;;;;;;218.67;204.67;;;;;;;;;;5018064;28;20786;-84
2023/05/29 05:02:46;;;;;;;234.97;219.97;;;;;;;;;;5027354;28;20454;-84
2023/05/29 05:05:12;;;;;;;224.17;209.77;;;;;;;;;;5022353;28;20442;-84
2023/05/29 05:07:38;;;;;;;246.43;229.73;;;;;;;;;;5025593;28;21322;-84
2023/05/29 05:10:05;;;;;;;243.07;227.00;;;;;;;;;;5018905;28;20451;-84
2023/05/29 05:12:31;;;;;;;291.10;271.70;;;;;;;;;;5013566;28;20410;-84
2023/05/29 05:14:57;;;;;;;287.23;268.07;;;;;;;;;;5004472;28;20466;-84
2023/05/29 05:17:23;;;;;;;292.83;273.40;;;;;;;;;;4998755;28;20796;-84
2023/05/29 05:19:49;;;;;;;317.10;294.90;;;;;;;;;;5013234;28;20488;-84
2023/05/29 05:22:16;;;;;;;321.53;299.83;;;;;;;;;;4997106;28;20395;-83
2023/05/29 05:24:42;;;;;;;350.27;325.07;;;;;;;;;;4995817;28;20470;-84
2023/05/29 05:27:08;;;;;;;298.27;277.77;;;;;;;;;;5011571;28;20447;-84
2023/05/29 05:29:34;;;;;;;187.10;175.30;;;;;;;;;;5014366;28;20437;-86
2023/05/29 05:32:00;;;;;;;92.13;87.13;;;;;;;;;;5005052;28;20456;-84
2023/05/29 05:34:26;;;;;;;106.77;100.40;;;;;;;;;;5008394;28;20470;-85
2023/05/29 05:36:52;;;;;;;229.53;215.63;;;;;;;;;;5007893;28;20446;-85
2023/05/29 05:39:18;;;;;;;269.47;252.63;;;;;;;;;;5003028;28;20439;-84
2023/05/29 05:41:44;;;;;;;300.60;281.87;;;;;;;;;;5002698;28;20455;-85
2023/05/29 05:44:10;;;;;;;182.27;171.67;;;;;;;;;;5016774;28;20427;-84
2023/05/29 05:46:36;;;;;;;102.37;96.77;;;;;;;;;;5006372;28;20999;-85
2023/05/29 05:49:02;;;;;;;135.83;127.87;;;;;;;;;;4997721;28;20448;-85
2023/05/29 05:51:28;;;;;;;49.13;46.27;;;;;;;;;;5005426;28;20451;-85
2023/05/29 05:53:54;;;;;;;143.97;136.13;;;;;;;;;;5010081;28;20477;-84
2023/05/29 05:56:20;;;;;;;248.77;234.57;;;;;;;;;;5000366;28;20550;-84
2023/05/29 05:58:46;;;;;;;291.33;274.43;;;;;;;;;;5019096;28;20431;-85
2023/05/29 06:01:12;;;;;;;239.63;224.80;;;;;;;;;;4988999;28;20448;-85
2023/05/29 06:03:38;;;;;;;222.10;210.03;;;;;;;;;;5009611;28;20427;-85
2023/05/29 06:06:04;;;;;;;253.07;238.93;;;;;;;;;;5009156;28;20428;-85
2023/05/29 06:08:30;;;;;;;243.77;230.27;;;;;;;;;;5007686;28;20451;-84
2023/05/29 06:10:57;;;;;;;356.33;335.57;;;;;;;;;;5004144;28;21171;-85
2023/05/29 06:13:23;;;;;;;287.37;271.27;;;;;;;;;;5018330;28;20462;-85
2023/05/29 06:15:48;;;;;;;250.83;237.10;;;;;;;;;;5012239;28;20884;-85
2023/05/29 06:18:14;;;;;;;290.50;274.77;;;;;;;;;;5025440;28;20445;-85
2023/05/29 06:20:41;;;;;;;145.73;138.73;;;;;;;;;;5010516;28;20416;-84
2023/05/29 06:23:07;;;;;;;171.20;162.20;;;;;;;;;;5017636;28;20450;-85
2023/05/29 06:25:33;;;;;;;272.60;257.63;;;;;;;;;;5019635;28;20431;-85
2023/05/29 06:28:02;;;;;;;161.20;153.00;;;;;;;;;;5023255;28;20495;-85
2023/05/29 06:30:29;;;;;;;117.10;111.47;;;;;;;;;;5022142;28;20422;-85
2023/05/29 06:32:55;;;;;;;149.80;142.40;;;;;;;;;;5020908;28;20534;-85
2023/05/29 06:35:21;;;;;;;252.67;239.77;;;;;;;;;;5020949;28;20507;-85
2023/05/29 06:37:47;;;;;;;234.73;222.93;;;;;;;;;;5016630;28;20595;-85
2023/05/29 06:40:15;;;;;;;259.57;246.07;;;;;;;;;;5049766;28;20495;-86
2023/05/29 06:42:44;;;;;;;318.97;301.97;;;;;;;;;;5043871;28;20488;-85
2023/05/29 06:45:11;;;;;;;306.93;291.33;;;;;;;;;;5039571;28;20442;-86
2023/05/29 06:47:37;;;;;;;212.53;202.20;;;;;;;;;;5020512;28;20511;-86
2023/05/29 06:50:03;;;;;;;307.50;292.00;;;;;;;;;;5025860;28;20529;-85
2023/05/29 06:52:29;;;;;;;274.53;261.03;;;;;;;;;;5018302;28;20504;-86
2023/05/29 06:54:56;;;;;;;209.60;199.67;;;;;;;;;;5024607;28;20463;-85
2023/05/29 06:57:22;;;;;;;43.73;41.07;;;;;;;;;;5018587;28;20493;-86
2023/05/29 06:59:48;;;;;;;31.30;28.83;;;;;;;;;;5025774;28;20481;-85
2023/05/29 07:02:14;;;;;;;44.33;41.83;;;;;;;;;;5023036;28;20975;-85
2023/05/29 07:04:41;;;;;;;23.93;21.80;;;;;;;;;;5026106;28;20465;-85
2023/05/29 07:07:07;;;;;;;91.17;86.43;;;;;;;;;;5023624;28;20462;-86
2023/05/29 07:09:33;;;;;;;130.27;123.83;;;;;;;;;;5025223;28;21191;-85
2023/05/29 07:11:59;;;;;;;93.70;88.70;;;;;;;;;;5025319;28;20450;-85
2023/05/29 07:14:27;;;;;;;15.37;14.00;;;;;;;;;;5026094;28;20988;-86
2023/05/29 07:16:53;;;;;;;14.40;12.50;;;;;;;;;;5021341;28;20791;-84
2023/05/29 07:19:19;;;;;;;37.13;34.53;;;;;;;;;;5025771;28;20426;-85
2023/05/29 07:21:45;;;;;;;17.00;15.60;;;;;;;;;;5023952;28;20480;-85
2023/05/29 07:24:12;;;;;;;34.58;32.33;;;;;;;;;;5020790;28;20778;-86
2023/05/29 07:26:38;;;;;;;18.53;16.83;;;;;;;;;;5016938;28;20200;-86
2023/05/29 07:29:04;;;;;;;23.43;21.50;;;;;;;;;;5035798;28;20445;-85
2023/05/29 07:31:30;;;;;;;38.67;36.10;;;;;;;;;;5023660;28;20501;-85
2023/05/29 07:33:56;;;;;;;11.20;10.20;;;;;;;;;;5013599;28;20474;-86
2023/05/29 07:36:22;;;;;;;22.07;20.13;;;;;;;;;;5010751;28;20437;-86
2023/05/29 07:38:48;;;;;;;14.77;13.70;;;;;;;;;;5042470;28;20485;-85
2023/05/29 07:41:17;;;;;;;33.73;31.33;;;;;;;;;;5030052;28;20447;-83
2023/05/29 07:43:45;;;;;;;20.17;18.30;;;;;;;;;;5009987;28;20433;-85
2023/05/29 07:46:11;;;;;;;155.67;147.67;;;;;;;;;;5017562;28;20819;-86
2023/05/29 07:48:37;;;;;;;152.20;145.07;;;;;;;;;;5019545;28;20430;-86
2023/05/29 07:51:03;;;;;;;238.33;224.53;;;;;;;;;;5027597;28;20419;-88
2023/05/29 07:53:29;;;;;;;100.80;95.50;;;;;;;;;;5027968;28;20473;-88
2023/05/29 07:55:55;;;;;;;31.47;28.87;;;;;;;;;;5027757;28;20441;-86
2023/05/29 07:58:21;;;;;;;119.07;113.10;;;;;;;;;;5026692;28;20443;-86
2023/05/29 08:00:48;;;;;;;31.33;29.00;;;;;;;;;;5028257;28;20513;-87
2023/05/29 08:03:15;;;;;;;35.73;33.70;;;;;;;;;;5026510;28;20451;-85
2023/05/29 08:05:41;;;;;;;72.57;68.67;;;;;;;;;;5026840;28;20441;-84
2023/05/29 08:08:07;;;;;;;110.20;104.97;;;;;;;;;;5022937;28;20470;-84
2023/05/29 08:10:33;;;;;;;233.40;222.73;;;;;;;;;;5028680;28;20489;-85
2023/05/29 08:12:59;;;;;;;251.93;240.83;;;;;;;;;;5025668;28;20465;-84
2023/05/29 08:15:26;;;;;;;355.33;337.43;;;;;;;;;;5028193;28;20435;-85
2023/05/29 08:17:52;;;;;;;383.80;364.47;;;;;;;;;;5029574;28;20443;-86
2023/05/29 08:20:18;;;;;;;428.00;406.20;;;;;;;;;;5033832;28;20962;-85
2023/05/29 08:22:44;;;;;;;338.67;322.47;;;;;;;;;;5022020;28;20432;-87
2023/05/29 08:25:11;;;;;;;332.03;315.73;;;;;;;;;;5029756;28;20485;-86
2023/05/29 08:27:37;;;;;;;358.67;340.97;;;;;;;;;;5005040;28;20620;-86
2023/05/29 08:30:03;;;;;;;424.23;402.77;;;;;;;;;;5004948;28;20834;-86
2023/05/29 08:32:29;;;;;;;396.13;376.23;;;;;;;;;;5036026;28;20605;-85
2023/05/29 08:34:56;;;;;;;184.63;176.30;;;;;;;;;;5033268;28;20477;-85
2023/05/29 08:37:22;;;;;;;231.23;220.70;;;;;;;;;;5038784;28;20439;-85
2023/05/29 08:39:48;;;;;;;381.20;362.20;;;;;;;;;;5047346;28;20493;-85
2023/05/29 08:42:18;;;;;;;411.63;390.93;;;;;;;;;;5006258;28;20499;-85
2023/05/29 08:44:49;;;;;;;580.27;547.83;;;;;;;;;;5035283;28;20423;-86
2023/05/29 08:47:20;;;;;;;554.30;523.73;;;;;;;;;;5007892;28;20518;-86
2023/05/29 08:49:46;;;;;;;304.47;289.47;;;;;;;;;;5031301;28;20427;-83
2023/05/29 08:52:26;;;;;;;296.37;282.70;;;;;;;;;;5035224;28;20828;-84
2023/05/29 08:54:53;;;;;;;240.67;229.07;;;;;;;;;;5040132;28;20627;-87
2023/05/29 08:57:20;;;;;;;213.63;204.03;;;;;;;;;;5035882;28;20462;-86
2023/05/29 08:59:49;;;;;;;156.63;149.73;;;;;;;;;;5034906;28;20801;-86
2023/05/29 09:02:15;;;;;;;189.20;179.93;;;;;;;;;;5032162;28;20498;-82
2023/05/29 09:04:44;;;;;;;224.20;213.83;;;;;;;;;;5033720;28;20435;-84
2023/05/29 09:07:11;;;;;;;268.20;255.87;;;;;;;;;;5028453;28;20665;-85
2023/05/29 09:09:37;;;;;;;209.40;199.60;;;;;;;;;;5030985;28;20430;-86
2023/05/29 09:12:03;;;;;;;95.87;91.40;;;;;;;;;;5026015;28;20434;-83
2023/05/29 09:14:35;;;;;;;151.37;144.53;;;;;;;;;;5031531;28;21123;-86
2023/05/29 09:17:02;;;;;;;252.63;240.97;;;;;;;;;;5030103;28;20439;-85
2023/05/29 09:19:28;;;;;;;443.07;419.53;;;;;;;;;;5031529;28;20469;-84
2023/05/29 09:22:00;;;;;;;280.00;266.90;;;;;;;;;;5024307;28;20457;-84
2023/05/29 09:24:28;;;;;;;377.60;358.93;;;;;;;;;;5028078;28;20465;-85
2023/05/29 09:26:55;;;;;;;317.33;302.40;;;;;;;;;;5026740;28;20439;-84
2023/05/29 09:29:21;;;;;;;330.33;314.67;;;;;;;;;;5029071;28;20451;-84
2023/05/29 09:31:47;;;;;;;241.23;229.83;;;;;;;;;;5031781;28;20474;-83
2023/05/29 09:34:13;;;;;;;275.90;263.17;;;;;;;;;;5027850;28;20478;-85
2023/05/29 09:36:39;;;;;;;345.43;328.33;;;;;;;;;;5032139;28;20492;-84
2023/05/29 09:39:09;;;;;;;406.80;385.87;;;;;;;;;;5032437;28;20461;-84
2023/05/29 09:41:35;;;;;;;275.17;262.20;;;;;;;;;;5033075;28;20433;-83
2023/05/29 09:44:03;;;;;;;437.23;414.10;;;;;;;;;;5016046;28;20445;-85
2023/05/29 09:46:29;;;;;;;603.70;568.67;;;;;;;;;;5036325;28;20438;-87
2023/05/29 09:49:02;;;;;;;604.03;569.90;;;;;;;;;;5043161;28;20454;-81
2023/05/29 09:51:31;;;;;;;544.07;513.77;;;;;;;;;;5014821;28;20537;-83
2023/05/29 09:54:00;;;;;;;408.43;388.13;;;;;;;;;;5014267;28;20466;-84
2023/05/29 09:56:27;;;;;;;486.30;459.50;;;;;;;;;;5033226;28;20418;-84
2023/05/29 09:58:54;;;;;;;467.70;442.60;;;;;;;;;;5009808;28;20550;-84
2023/05/29 10:01:21;;;;;;;450.30;426.47;;;;;;;;;;5033386;28;20419;-85
2023/05/29 10:03:48;;;;;;;518.43;489.80;;;;;;;;;;5025473;28;20568;-84
2023/05/29 10:06:17;;;;;;;426.77;404.57;;;;;;;;;;5023428;28;20444;-85
2023/05/29 10:08:48;;;;;;;435.67;412.73;;;;;;;;;;5027609;28;20438;-85
2023/05/29 10:11:15;;;;;;;670.37;630.23;;;;;;;;;;5029393;28;20560;-86
2023/05/29 10:13:48;;;;;;;497.17;468.97;;;;;;;;;;5020059;28;20470;-84
2023/05/29 10:16:15;;;;;;;475.93;449.80;;;;;;;;;;5028604;28;20461;-85
2023/05/29 10:18:51;;;;;;;430.17;407.97;;;;;;;;;;5022013;28;20453;-84
2023/05/29 10:21:18;;;;;;;454.10;430.37;;;;;;;;;;5027989;28;20486;-85
2023/05/29 10:23:46;;;;;;;421.90;400.13;;;;;;;;;;5026680;28;20959;-85
2023/05/29 10:26:18;;;;;;;356.40;338.70;;;;;;;;;;4997798;28;20740;-85
2023/05/29 10:28:47;;;;;;;379.77;361.13;;;;;;;;;;5026670;28;20417;-84
2023/05/29 10:31:17;;;;;;;286.10;272.10;;;;;;;;;;5051530;28;20441;-86
2023/05/29 10:34:08;;;;;;;246.43;235.07;;;;;;;;;;5020445;28;20473;-83
2023/05/29 10:36:43;;;;;;;409.83;388.93;;;;;;;;;;5032256;28;20411;-84
2023/05/29 10:39:09;;;;;;;446.47;423.37;;;;;;;;;;5020910;28;20481;-85
2023/05/29 10:41:39;;;;;;;267.83;255.50;;;;;;;;;;5012793;28;20750;-86
2023/05/29 10:44:25;;;;;;;299.77;285.80;;;;;;;;;;5027554;28;20418;-87
2023/05/29 10:47:01;;;;;;;522.60;493.70;;;;;;;;;;5026489;28;20458;-85
2023/05/29 10:49:27;;;;;;;449.10;425.80;;;;;;;;;;5025644;28;21050;-86
2023/05/29 10:51:54;;;;;;;140.97;133.90;;;;;;;;;;5031083;28;20470;-86
2023/05/29 10:54:22;;;;;;;279.80;267.17;;;;;;;;;;5029905;28;20486;-85
2023/05/29 10:56:58;;;;;;;180.80;172.57;;;;;;;;;;5030270;28;20446;-85
2023/05/29 10:59:28;;;;;;;188.30;180.30;;;;;;;;;;5025845;28;20470;-84
2023/05/29 11:01:55;;;;;;;259.90;247.67;;;;;;;;;;5032403;28;20493;-86
2023/05/29 11:04:21;;;;;;;198.63;189.87;;;;;;;;;;5028183;28;20590;-85
2023/05/29 11:06:47;;;;;;;240.97;229.97;;;;;;;;;;5018726;28;20453;-85
2023/05/29 11:09:37;;;;;;;61.77;58.30;;;;;;;;;;5025092;28;20457;-86
2023/05/29 11:12:25;;;;;;;195.90;186.80;;;;;;;;;;5047540;28;20441;-86
2023/05/29 11:14:56;;;;;;;172.03;164.23;;;;;;;;;;5051954;28;20461;-85
2023/05/29 11:17:40;;;;;;;244.03;233.43;;;;;;;;;;5004909;28;20801;-85
2023/05/29 11:20:16;;;;;;;302.37;288.17;;;;;;;;;;5031586;28;20462;-86
2023/05/29 11:23:01;;;;;;;289.70;276.90;;;;;;;;;;5023119;28;20422;-84
2023/05/29 11:25:28;;;;;;;240.67;229.97;;;;;;;;;;5034507;28;20903;-85
2023/05/29 11:27:54;;;;;;;301.97;287.67;;;;;;;;;;5028990;28;20529;-86
2023/05/29 11:30:20;;;;;;;374.10;355.00;;;;;;;;;;5028155;28;20434;-85
2023/05/29 11:32:47;;;;;;;329.27;313.57;;;;;;;;;;5031108;28;20426;-87
2023/05/29 11:35:14;;;;;;;246.63;234.83;;;;;;;;;;5031610;28;20525;-86
2023/05/29 11:37:45;;;;;;;280.73;267.27;;;;;;;;;;5030163;28;20441;-86
2023/05/29 11:40:12;;;;;;;268.47;256.23;;;;;;;;;;5032202;28;20473;-86
2023/05/29 11:42:44;;;;;;;260.30;248.10;;;;;;;;;;5015295;28;20904;-84
2023/05/29 11:45:19;;;;;;;282.03;269.10;;;;;;;;;;5035745;28;20437;-84
2023/05/29 11:47:58;;;;;;;280.87;268.03;;;;;;;;;;5028257;28;20827;-86
2023/05/29 11:50:34;;;;;;;214.47;204.47;;;;;;;;;;5035348;28;20434;-87
2023/05/29 11:53:00;;;;;;;289.27;275.77;;;;;;;;;;5016150;28;20445;-87
2023/05/29 11:55:26;;;;;;;254.50;243.00;;;;;;;;;;5021658;28;20434;-86
2023/05/29 11:58:00;;;;;;;370.80;352.50;;;;;;;;;;5038260;28;21028;-83
2023/05/29 12:00:30;;;;;;;471.90;446.50;;;;;;;;;;5033870;28;20423;-86
2023/05/29 12:02:58;;;;;;;412.63;391.33;;;;;;;;;;5024554;28;20442;-86
2023/05/29 12:05:24;;;;;;;313.57;298.80;;;;;;;;;;5025759;28;20427;-86
2023/05/29 12:07:56;;;;;;;336.80;320.40;;;;;;;;;;5015068;28;20478;-85
2023/05/29 12:10:22;;;;;;;283.97;271.30;;;;;;;;;;5026693;28;20632;-84
2023/05/29 12:12:52;;;;;;;131.13;125.30;;;;;;;;;;5039491;28;20503;-84
2023/05/29 12:15:18;;;;;;;135.20;128.70;;;;;;;;;;5035582;28;20438;-84
2023/05/29 12:17:45;;;;;;;218.00;208.17;;;;;;;;;;5027206;28;20442;-85
2023/05/29 12:20:11;;;;;;;229.53;219.10;;;;;;;;;;5023208;28;20533;-86
2023/05/29 12:22:38;;;;;;;113.57;108.07;;;;;;;;;;5026845;28;20901;-85
2023/05/29 12:25:08;;;;;;;55.90;52.83;;;;;;;;;;5039340;28;20415;-86
2023/05/29 12:27:41;;;;;;;129.47;123.67;;;;;;;;;;5049929;28;20455;-86
2023/05/29 12:30:08;;;;;;;282.57;269.97;;;;;;;;;;5020528;28;20450;-86
2023/05/29 12:32:38;;;;;;;325.10;310.03;;;;;;;;;;5040284;28;20419;-86
2023/05/29 12:35:23;;;;;;;383.00;364.10;;;;;;;;;;5031220;28;20467;-85
2023/05/29 12:37:54;;;;;;;342.10;325.40;;;;;;;;;;5033455;28;20523;-84
2023/05/29 12:40:30;;;;;;;300.47;286.43;;;;;;;;;;5033362;28;20423;-86
2023/05/29 12:42:56;;;;;;;139.57;133.27;;;;;;;;;;5029368;28;20807;-86
2023/05/29 12:45:23;;;;;;;181.17;173.20;;;;;;;;;;5014395;28;20432;-87
2023/05/29 12:47:56;;;;;;;170.57;162.73;;;;;;;;;;5031526;28;20438;-84
2023/05/29 12:50:22;;;;;;;169.20;161.90;;;;;;;;;;5034090;28;20718;-84
2023/05/29 12:53:05;;;;;;;154.20;147.23;;;;;;;;;;5038345;28;20501;-83
2023/05/29 12:55:38;;;;;;;189.83;181.43;;;;;;;;;;5002501;28;20665;-79
2023/05/29 12:58:05;;;;;;;201.97;192.73;;;;;;;;;;5025272;28;20500;-86
2023/05/29 13:00:31;;;;;;;405.63;384.40;;;;;;;;;;5034886;28;20438;-84
2023/05/29 13:02:58;;;;;;;342.93;325.63;;;;;;;;;;5029982;28;20442;-85
2023/05/29 13:05:24;;;;;;;380.33;361.10;;;;;;;;;;5034615;28;20533;-82
2023/05/29 13:07:51;;;;;;;334.60;318.10;;;;;;;;;;5034925;28;20438;-84
2023/05/29 13:10:20;;;;;;;164.03;157.00;;;;;;;;;;5038081;28;20953;-86
2023/05/29 13:12:46;;;;;;;163.33;154.93;;;;;;;;;;5033457;28;20435;-83
2023/05/29 13:15:13;;;;;;;209.10;199.53;;;;;;;;;;5028238;28;20462;-86
2023/05/29 13:17:43;;;;;;;196.77;187.23;;;;;;;;;;5027237;28;20451;-84
2023/05/29 13:20:10;;;;;;;201.83;192.83;;;;;;;;;;5030320;28;20898;-84
2023/05/29 13:22:36;;;;;;;223.53;213.60;;;;;;;;;;5029625;28;20525;-82
2023/05/29 13:25:03;;;;;;;196.27;187.83;;;;;;;;;;5038193;28;20422;-86
2023/05/29 13:27:36;;;;;;;347.53;330.70;;;;;;;;;;5037633;28;20446;-84
2023/05/29 13:30:03;;;;;;;300.87;286.63;;;;;;;;;;5026196;28;20430;-85
2023/05/29 13:32:30;;;;;;;362.70;345.07;;;;;;;;;;5023065;28;20959;-84
2023/05/29 13:34:56;;;;;;;335.00;319.40;;;;;;;;;;5042282;28;20473;-88
2023/05/29 13:37:22;;;;;;;345.33;328.40;;;;;;;;;;5038454;28;20455;-84
2023/05/29 13:39:48;;;;;;;374.60;356.13;;;;;;;;;;5041343;28;20519;-84
2023/05/29 13:42:14;;;;;;;368.87;350.93;;;;;;;;;;5037961;28;20439;-87
2023/05/29 13:44:40;;;;;;;197.67;188.87;;;;;;;;;;5037735;28;20496;-84
2023/05/29 13:47:07;;;;;;;299.57;286.07;;;;;;;;;;5035367;28;20434;-86
2023/05/29 13:49:34;;;;;;;347.70;330.97;;;;;;;;;;5038044;28;20450;-86
2023/05/29 13:52:00;;;;;;;285.27;271.67;;;;;;;;;;5014111;28;20442;-86
2023/05/29 13:54:31;;;;;;;299.07;285.53;;;;;;;;;;5039679;28;20569;-85
2023/05/29 13:56:57;;;;;;;282.30;269.27;;;;;;;;;;5019098;28;20441;-85
2023/05/29 13:59:24;;;;;;;301.63;287.50;;;;;;;;;;5037881;28;20407;-86